Dutch Harbor, Alaska
Current Conditions -  °F | °C
As of 8:05 AM on Monday 22 Dec 2014 (Local Time) from PADU Reporting Station
Light Snow Light Snow  
Wind Chill: 23°   Ceiling: 2400
Heat Index: 34°   Visibility: 3mi
Dew Point: 28°   Wind: 17mph
Humidity: 81%   Direction: 350°N
Pressure: 29.91"   Gusts: NA
Location:  53.51°N, 167.06°W
Report Text: PADU 221705Z 35015KT 3SM -SN BR SCT014 OVC024 01/M02 A2991 RMK CS
Loading
Personal Weather Stations






























Interactive Weather Map New forecast layout! Learn more

10-Day Weather Forecast

Advertisements
Track Severe Weather on mobile